Aviation Digital Data Service (ADDS)

Output produced by METARs form (1210 UTC 15 November 2018)
found at http://www.aviationweather.gov/metar/data/
 
VLLB 151200Z 04008KT 6000 TS FEW017CB SCT050 OVC070 27/22 Q1012 CB N NOSIG
TAF VLLB 151100Z 1512/1612 30004KT 9999 SCT020 SCT060 BKN080 
     TEMPO 1516/1522 3000 BR OVC006
       
VLPS 151200Z 09002KT 9999 FEW020 FEW100 SCT200 31/23 Q1010 NOSIG
TAF VLPS 151100Z 1512/1612 14004KT 9999 SCT020 SCT200
       
VLSK 151200Z 36002KT 3000 BR SCT040 30/21 Q1010 NOSIG
TAF VLSK 151100Z 1512/1612 09004KT 8000 SCT020 SCT100 
     TEMPO 1514/1520 3000 BR FEW040 SCT100
       
VLVT 151200Z 32002KT 5000 BR FEW040 28/24 Q1010 NOSIG
TAF VLVT 151100Z 1512/1612 14004KT 8000 SCT020 
     TEMPO 1514/1520 4000 BR FEW040 FEW200